createdAt,value
2022-12-09T00:00:03.224Z,77.10
2022-12-09T00:02:45.442Z,77.31
2022-12-09T00:05:35.086Z,76.95
2022-12-09T00:08:23.987Z,77.24
2022-12-09T00:11:06.233Z,76.50
2022-12-09T00:13:58.904Z,76.57
2022-12-09T00:16:47.969Z,76.50
2022-12-09T00:19:30.449Z,76.00
2022-12-09T00:22:19.006Z,76.59
2022-12-09T00:25:01.029Z,75.14
2022-12-09T00:27:49.887Z,76.22
2022-12-09T00:30:39.187Z,75.31
2022-12-09T00:33:21.142Z,75.30
2022-12-09T00:36:15.050Z,76.58
2022-12-09T00:38:58.456Z,76.00
2022-12-09T00:41:47.055Z,75.28
2022-12-09T00:44:29.160Z,76.17
2022-12-09T00:47:18.114Z,75.72
2022-12-09T00:50:00.325Z,75.76
2022-12-09T00:52:49.869Z,75.47
2022-12-09T00:55:39.055Z,75.10
2022-12-09T00:58:27.763Z,75.22
2022-12-09T01:01:16.991Z,75.24
2022-12-09T01:03:59.791Z,74.96
2022-12-09T01:06:49.818Z,76.19
2022-12-09T01:09:32.298Z,75.19
2022-12-09T01:12:21.181Z,76.05
2022-12-09T01:15:03.085Z,75.44
2022-12-09T01:17:52.790Z,75.65
2022-12-09T01:20:43.340Z,76.59
2022-12-09T01:23:24.912Z,75.44
2022-12-09T01:26:08.548Z,75.55
2022-12-09T01:28:59.882Z,76.10
2022-12-09T01:31:48.841Z,75.26
2022-12-09T01:34:45.116Z,75.38
2022-12-09T01:37:34.800Z,75.72
2022-12-09T01:40:22.126Z,75.90
2022-12-09T01:43:11.127Z,75.87
2022-12-09T01:45:53.223Z,76.48
2022-12-09T01:48:45.962Z,75.80
2022-12-09T01:51:30.248Z,76.56
2022-12-09T01:54:19.837Z,76.71
2022-12-09T01:57:03.243Z,77.04
2022-12-09T01:59:53.909Z,76.44
2022-12-09T02:02:37.225Z,76.37
2022-12-09T02:05:26.948Z,76.43
2022-12-09T02:08:09.269Z,77.16
2022-12-09T02:11:46.153Z,76.51
2022-12-09T02:14:49.137Z,76.60
2022-12-09T02:17:54.849Z,77.14
2022-12-09T02:21:11.831Z,76.76
2022-12-09T02:24:09.709Z,76.82
2022-12-09T02:27:12.887Z,76.81
2022-12-09T02:30:15.412Z,76.74
2022-12-09T02:33:31.039Z,76.15
2022-12-09T02:36:19.442Z,75.57
2022-12-09T02:39:07.949Z,75.32
2022-12-09T02:41:53.498Z,75.47
2022-12-09T02:44:43.968Z,75.77
2022-12-09T02:47:33.257Z,75.38
2022-12-09T02:50:27.835Z,75.70
2022-12-09T02:53:21.791Z,74.58
2022-12-09T02:56:12.104Z,74.49
2022-12-09T02:59:00.919Z,74.64
2022-12-09T03:01:56.183Z,73.94
2022-12-09T03:04:47.235Z,74.16
2022-12-09T03:07:46.867Z,74.07
2022-12-09T03:10:44.866Z,73.95
2022-12-09T03:14:04.954Z,74.60
2022-12-09T03:16:56.982Z,73.99
2022-12-09T03:20:16.037Z,73.21
2022-12-09T03:23:08.861Z,72.63
2022-12-09T03:26:02.839Z,71.65
2022-12-09T03:28:57.902Z,69.81
2022-12-09T03:31:42.252Z,69.17
2022-12-09T03:34:40.794Z,66.38
2022-12-09T03:37:32.937Z,64.18
2022-12-09T03:40:19.351Z,61.19
2022-12-09T03:43:17.857Z,62.49
2022-12-09T03:46:07.209Z,59.64
2022-12-09T03:48:49.280Z,57.90
2022-12-09T03:51:57.966Z,56.65
2022-12-09T03:55:05.936Z,55.95
2022-12-09T03:57:58.199Z,54.61
2022-12-09T04:00:42.928Z,53.88
2022-12-09T04:03:31.965Z,54.93
2022-12-09T04:06:14.188Z,53.85
2022-12-09T04:09:03.216Z,51.64
2022-12-09T04:11:51.885Z,52.11
2022-12-09T04:14:40.226Z,52.24
2022-12-09T04:17:21.987Z,52.42
2022-12-09T04:20:13.434Z,50.35
2022-12-09T04:22:55.750Z,51.40
2022-12-09T04:25:46.102Z,50.30
2022-12-09T04:28:34.811Z,49.29
2022-12-09T04:31:18.938Z,50.95
2022-12-09T04:34:09.883Z,51.66
2022-12-09T04:36:52.211Z,52.19
2022-12-09T04:39:41.148Z,51.09
2022-12-09T04:42:23.186Z,49.44
2022-12-09T04:45:11.818Z,50.61
2022-12-09T04:48:01.090Z,50.29
2022-12-09T04:50:43.514Z,51.51
2022-12-09T04:53:32.765Z,51.86
2022-12-09T04:56:27.247Z,50.73
2022-12-09T04:59:16.076Z,50.61
2022-12-09T05:01:58.609Z,50.34
2022-12-09T05:04:50.004Z,50.79
2022-12-09T05:07:32.835Z,51.48
2022-12-09T05:10:22.153Z,50.90
2022-12-09T05:13:04.471Z,49.50
2022-12-09T05:15:53.970Z,50.07
2022-12-09T05:18:43.164Z,50.83
2022-12-09T05:21:31.942Z,50.47
2022-12-09T05:24:14.279Z,50.75
2022-12-09T05:27:03.264Z,50.07
2022-12-09T05:29:45.332Z,49.18
2022-12-09T05:32:37.036Z,49.08
2022-12-09T05:35:25.506Z,49.59
2022-12-09T05:38:09.011Z,49.08
2022-12-09T05:40:51.394Z,48.34
2022-12-09T05:43:40.879Z,47.56
2022-12-09T05:46:30.939Z,46.66
2022-12-09T05:49:13.884Z,47.18
2022-12-09T05:52:02.160Z,46.80
2022-12-09T05:54:46.027Z,46.01
2022-12-09T05:57:34.379Z,45.00
2022-12-09T06:00:18.192Z,46.59
2022-12-09T06:03:00.263Z,45.39
2022-12-09T06:05:48.993Z,47.10
2022-12-09T06:08:31.853Z,45.89
2022-12-09T06:11:29.134Z,46.45
2022-12-09T06:14:12.711Z,44.39
2022-12-09T06:17:02.052Z,45.25
2022-12-09T06:19:44.162Z,46.83
2022-12-09T06:22:33.914Z,45.49
2022-12-09T06:25:16.270Z,47.11
2022-12-09T06:28:06.911Z,46.77
2022-12-09T06:30:56.305Z,45.45
2022-12-09T06:33:54.795Z,45.77
2022-12-09T06:36:39.234Z,45.60
2022-12-09T06:39:27.919Z,45.87
2022-12-09T06:42:10.261Z,47.22
2022-12-09T06:44:58.869Z,48.83
2022-12-09T06:47:41.335Z,47.97
2022-12-09T06:50:30.169Z,47.01
2022-12-09T06:53:13.258Z,46.99
2022-12-09T06:56:05.206Z,48.22
2022-12-09T06:59:01.209Z,46.97
2022-12-09T07:01:49.636Z,48.22
2022-12-09T07:04:32.213Z,47.07
2022-12-09T07:07:16.188Z,47.00
2022-12-09T07:10:04.897Z,48.93
2022-12-09T07:12:54.232Z,47.16
2022-12-09T07:15:36.407Z,48.42
2022-12-09T07:18:25.936Z,47.75
2022-12-09T07:21:18.208Z,48.23
2022-12-09T07:24:11.915Z,47.63
2022-12-09T07:26:55.235Z,48.33
2022-12-09T07:29:45.165Z,49.70
2022-12-09T07:32:27.495Z,48.53
2022-12-09T07:35:18.084Z,46.73
2022-12-09T07:38:00.501Z,45.80
2022-12-09T07:40:50.345Z,44.30
2022-12-09T07:43:32.398Z,44.22
2022-12-09T07:46:25.142Z,43.56
2022-12-09T07:49:09.259Z,44.71
2022-12-09T07:51:58.132Z,43.06
2022-12-09T07:54:40.044Z,43.84
2022-12-09T07:57:29.124Z,45.05
2022-12-09T08:00:12.218Z,42.96
2022-12-09T08:03:01.909Z,42.72
2022-12-09T08:05:44.274Z,42.54
2022-12-09T08:08:33.059Z,41.35
2022-12-09T08:11:31.712Z,41.27
2022-12-09T08:14:20.982Z,41.16
2022-12-09T08:17:03.461Z,41.74
2022-12-09T08:19:53.123Z,41.81
2022-12-09T08:22:35.102Z,40.58
2022-12-09T08:25:25.174Z,40.32
2022-12-09T08:28:07.166Z,40.84
2022-12-09T08:30:56.390Z,41.46
2022-12-09T08:33:39.270Z,41.54
2022-12-09T08:36:33.901Z,41.67
2022-12-09T08:39:17.485Z,41.86
2022-12-09T08:42:07.382Z,41.43
2022-12-09T08:44:55.846Z,43.12
2022-12-09T08:47:49.978Z,42.35
2022-12-09T08:50:32.345Z,42.61
2022-12-09T08:53:21.012Z,41.79
2022-12-09T08:56:03.267Z,42.23
2022-12-09T08:58:51.831Z,41.92
2022-12-09T09:01:43.021Z,41.54
2022-12-09T09:04:31.990Z,41.75
2022-12-09T09:07:21.963Z,42.52
2022-12-09T09:10:11.856Z,42.66
2022-12-09T09:12:54.860Z,43.18
2022-12-09T09:15:39.930Z,43.48
2022-12-09T09:18:30.208Z,43.18
2022-12-09T09:21:20.347Z,43.04
2022-12-09T09:24:03.887Z,42.02
2022-12-09T09:26:46.933Z,41.71
2022-12-09T09:29:38.277Z,41.24
2022-12-09T09:32:26.456Z,41.76
2022-12-09T09:35:23.367Z,42.56
2022-12-09T09:38:11.381Z,43.14
2022-12-09T09:40:54.029Z,43.62
2022-12-09T09:43:46.502Z,43.07
2022-12-09T09:46:44.042Z,43.12
2022-12-09T09:49:57.134Z,42.01
2022-12-09T09:52:46.011Z,41.70
2022-12-09T09:55:58.263Z,41.80
2022-12-09T09:58:53.409Z,41.07
2022-12-09T10:01:45.044Z,41.58
2022-12-09T10:05:07.141Z,40.56
2022-12-09T10:07:55.781Z,41.39
2022-12-09T10:11:17.063Z,41.05
2022-12-09T10:14:25.464Z,41.91
2022-12-09T10:17:21.337Z,42.13
2022-12-09T10:20:15.216Z,42.63
2022-12-09T10:23:15.477Z,42.25
2022-12-09T10:26:07.872Z,42.68
2022-12-09T10:29:01.918Z,43.03
2022-12-09T10:31:50.654Z,42.26
2022-12-09T10:34:39.957Z,42.38
2022-12-09T10:37:48.542Z,42.62
2022-12-09T10:41:01.314Z,43.04
2022-12-09T10:43:47.366Z,44.44
2022-12-09T10:46:37.188Z,43.57
2022-12-09T10:49:34.869Z,43.26
2022-12-09T10:52:31.023Z,44.37
2022-12-09T10:55:14.236Z,44.39
2022-12-09T10:58:26.239Z,44.21
2022-12-09T11:01:18.305Z,46.00
2022-12-09T11:04:08.083Z,45.14
2022-12-09T11:06:58.767Z,46.21
2022-12-09T11:09:45.038Z,45.60
2022-12-09T11:12:41.096Z,46.03
2022-12-09T11:15:34.759Z,47.54
2022-12-09T11:18:37.957Z,47.50
2022-12-09T11:21:50.887Z,49.24
2022-12-09T11:24:40.834Z,48.91
2022-12-09T11:27:46.761Z,50.33
2022-12-09T11:30:31.784Z,49.52
2022-12-09T11:33:45.009Z,49.40
2022-12-09T11:36:37.038Z,48.37
2022-12-09T11:39:41.799Z,48.71
2022-12-09T11:42:25.715Z,48.55
2022-12-09T11:45:20.836Z,48.84
2022-12-09T11:48:33.957Z,49.46
2022-12-09T11:51:56.859Z,52.10
2022-12-09T11:54:57.983Z,51.21
2022-12-09T11:57:58.784Z,52.44
2022-12-09T12:00:52.423Z,53.43
2022-12-09T12:03:52.772Z,54.08
2022-12-09T12:07:19.321Z,55.18
2022-12-09T12:10:13.684Z,56.56
2022-12-09T12:13:24.781Z,57.17
2022-12-09T12:16:19.833Z,57.75
2022-12-09T12:19:07.550Z,57.94
2022-12-09T12:22:34.953Z,57.39
2022-12-09T12:25:52.782Z,58.66
2022-12-09T12:28:41.215Z,58.61
2022-12-09T12:31:35.748Z,59.18
2022-12-09T12:34:40.807Z,59.59
2022-12-09T12:37:48.670Z,59.49
2022-12-09T12:41:35.818Z,60.17
2022-12-09T12:44:38.805Z,59.97
2022-12-09T12:47:36.773Z,60.43
2022-12-09T12:50:40.795Z,60.46
2022-12-09T12:53:41.070Z,60.87
2022-12-09T12:56:42.819Z,60.85
2022-12-09T13:00:01.276Z,60.28
2022-12-09T13:03:12.834Z,60.30
2022-12-09T13:06:00.226Z,60.54
2022-12-09T13:09:03.797Z,60.23
2022-12-09T13:12:12.047Z,60.14
2022-12-09T13:15:02.797Z,60.17
2022-12-09T13:17:45.510Z,60.96
2022-12-09T13:20:43.720Z,61.34
2022-12-09T13:23:41.176Z,61.22
2022-12-09T13:26:53.833Z,61.79
2022-12-09T13:29:52.209Z,62.27
2022-12-09T13:32:46.815Z,62.43
2022-12-09T13:35:52.935Z,62.69
2022-12-09T13:38:47.741Z,63.25
2022-12-09T13:41:58.775Z,63.92
2022-12-09T13:44:47.396Z,64.29
2022-12-09T13:47:42.761Z,63.33
2022-12-09T13:50:38.843Z,64.88
2022-12-09T13:53:28.240Z,64.08
2022-12-09T13:56:15.732Z,64.02
2022-12-09T13:58:57.953Z,63.90
2022-12-09T14:02:07.727Z,63.48
2022-12-09T14:05:06.931Z,64.05
2022-12-09T14:08:09.883Z,63.76
2022-12-09T14:10:54.154Z,64.50
2022-12-09T14:13:47.817Z,64.07
2022-12-09T14:16:36.139Z,64.33
2022-12-09T14:19:33.885Z,64.64
2022-12-09T14:22:25.166Z,65.06
2022-12-09T14:29:53.720Z,65.13
2022-12-09T14:32:50.759Z,64.83
2022-12-09T14:35:42.565Z,64.98
2022-12-09T14:38:54.316Z,65.23
2022-12-09T14:42:00.689Z,65.87
2022-12-09T14:44:55.727Z,65.74
2022-12-09T14:47:50.112Z,66.13
2022-12-09T14:50:36.761Z,65.86
2022-12-09T14:53:32.765Z,65.95
2022-12-09T14:56:15.098Z,65.86
2022-12-09T14:59:28.756Z,66.83
2022-12-09T15:02:31.325Z,66.92
2022-12-09T15:05:24.812Z,67.40
2022-12-09T15:08:07.087Z,67.59
2022-12-09T15:10:55.748Z,67.48
2022-12-09T15:13:45.811Z,67.43
2022-12-09T15:16:28.300Z,67.88
2022-12-09T15:19:30.746Z,67.17
2022-12-09T15:22:38.668Z,66.70
2022-12-09T15:25:30.155Z,67.10
2022-12-09T15:28:26.609Z,66.71
2022-12-09T15:31:31.767Z,66.71
2022-12-09T15:34:27.392Z,66.85
2022-12-09T15:37:13.805Z,66.95
2022-12-09T15:40:09.666Z,66.91
2022-12-09T15:43:02.744Z,66.85
2022-12-09T15:45:53.087Z,66.66
2022-12-09T15:48:41.824Z,66.43
2022-12-09T15:51:33.688Z,65.45
2022-12-09T15:54:28.701Z,66.05
2022-12-09T15:57:17.510Z,66.38
2022-12-09T16:00:13.002Z,66.80
2022-12-09T16:02:55.382Z,66.71
2022-12-09T16:05:44.863Z,66.67
2022-12-09T16:08:58.783Z,66.56
2022-12-09T16:11:43.016Z,67.21
2022-12-09T16:14:33.811Z,67.32
2022-12-09T16:17:31.687Z,67.09
2022-12-09T16:20:49.771Z,67.50
2022-12-09T16:23:38.845Z,67.75
2022-12-09T16:26:49.713Z,67.85
2022-12-09T16:29:44.675Z,68.27
2022-12-09T16:32:44.823Z,68.49
2022-12-09T16:35:46.039Z,68.34
2022-12-09T16:38:28.813Z,68.66
2022-12-09T16:41:20.264Z,68.60
2022-12-09T16:44:04.791Z,67.69
2022-12-09T16:46:54.133Z,67.58
2022-12-09T16:49:35.752Z,67.80
2022-12-09T16:52:30.235Z,68.36
2022-12-09T16:55:24.790Z,68.66
2022-12-09T16:58:13.092Z,67.83
2022-12-09T17:00:55.854Z,68.56
2022-12-09T17:04:01.816Z,68.47
2022-12-09T17:06:44.087Z,68.46
2022-12-09T17:09:32.755Z,68.59
2022-12-09T17:12:15.189Z,68.49
2022-12-09T17:15:03.674Z,68.39
2022-12-09T17:17:48.909Z,68.88
2022-12-09T17:20:37.723Z,68.66
2022-12-09T17:23:21.337Z,68.61
2022-12-09T17:26:12.066Z,68.77
2022-12-09T17:29:02.224Z,69.31
2022-12-09T17:31:52.798Z,69.27
2022-12-09T17:34:36.265Z,68.81
2022-12-09T17:37:25.653Z,68.65
2022-12-09T17:40:14.741Z,69.26
2022-12-09T17:42:57.059Z,69.16
2022-12-09T17:45:46.042Z,68.52
2022-12-09T17:48:37.031Z,68.92
2022-12-09T17:51:21.733Z,68.93
2022-12-09T17:54:04.143Z,69.02
2022-12-09T17:56:54.794Z,69.18
2022-12-09T17:59:37.123Z,69.04
2022-12-09T18:02:26.787Z,69.18
2022-12-09T18:05:16.770Z,69.44
2022-12-09T18:07:59.310Z,69.63
2022-12-09T18:10:47.805Z,69.52
2022-12-09T18:13:31.074Z,69.92
2022-12-09T18:16:20.760Z,69.53
2022-12-09T18:19:03.164Z,70.10
2022-12-09T18:21:52.648Z,70.43
2022-12-09T18:24:35.108Z,70.36
2022-12-09T18:27:23.771Z,70.95
2022-12-09T18:30:06.294Z,71.04
2022-12-09T18:32:55.773Z,70.26
2022-12-09T18:35:38.047Z,71.14
2022-12-09T18:38:26.789Z,71.20
2022-12-09T18:41:09.143Z,70.92
2022-12-09T18:43:59.836Z,71.31
2022-12-09T18:46:45.092Z,71.65
2022-12-09T18:49:35.776Z,71.60
2022-12-09T18:52:18.102Z,71.67
2022-12-09T18:55:06.787Z,71.57
2022-12-09T18:57:55.928Z,70.89
2022-12-09T19:00:46.166Z,71.95
2022-12-09T19:03:28.948Z,71.54
2022-12-09T19:06:40.715Z,71.83
2022-12-09T19:09:33.784Z,72.13
2022-12-09T19:12:56.503Z,71.98
2022-12-09T19:15:27.632Z,72.05
2022-12-09T19:18:17.915Z,71.58
2022-12-09T19:21:09.820Z,70.97
2022-12-09T19:24:01.373Z,70.63
2022-12-09T19:26:51.029Z,70.62
2022-12-09T19:29:34.175Z,70.60
2022-12-09T19:32:51.410Z,70.54
2022-12-09T19:35:25.289Z,71.04
2022-12-09T19:38:13.757Z,71.18
2022-12-09T19:40:56.260Z,70.98
2022-12-09T19:43:44.780Z,70.60
2022-12-09T19:46:29.960Z,70.83
2022-12-09T19:49:23.773Z,70.22
2022-12-09T19:52:06.018Z,70.75
2022-12-09T19:54:54.773Z,71.07
2022-12-09T19:57:43.705Z,70.79
2022-12-09T20:00:26.023Z,70.93
2022-12-09T20:03:14.788Z,71.99
2022-12-09T20:06:03.761Z,71.52
2022-12-09T20:08:47.161Z,72.47
2022-12-09T20:11:37.700Z,71.92
2022-12-09T20:14:21.994Z,71.51
2022-12-09T20:17:10.712Z,72.12
2022-12-09T20:19:53.096Z,72.03
2022-12-09T20:22:41.762Z,72.84
2022-12-09T20:25:30.678Z,72.03
2022-12-09T20:28:13.078Z,72.47
2022-12-09T20:31:07.717Z,72.46
2022-12-09T20:33:55.435Z,72.50
2022-12-09T20:36:46.717Z,72.61
2022-12-09T20:39:35.041Z,72.36
2022-12-09T20:42:16.748Z,72.94
2022-12-09T20:45:05.040Z,72.91
2022-12-09T20:47:47.749Z,73.21
2022-12-09T20:50:33.669Z,73.71
2022-12-09T20:53:26.769Z,73.19
2022-12-09T20:56:16.018Z,73.27
2022-12-09T20:59:01.731Z,72.49
2022-12-09T21:01:51.083Z,74.11
2022-12-09T21:04:33.837Z,73.16
2022-12-09T21:07:16.063Z,73.99
2022-12-09T21:10:04.910Z,74.42
2022-12-09T21:12:47.129Z,73.38
2022-12-09T21:15:35.756Z,73.70
2022-12-09T21:18:24.056Z,73.45
2022-12-09T21:21:06.743Z,73.74
2022-12-09T21:23:55.719Z,73.85
2022-12-09T21:26:37.969Z,74.08
2022-12-09T21:29:31.628Z,73.00
2022-12-09T21:32:26.718Z,73.16
2022-12-09T21:35:16.107Z,73.29
2022-12-09T21:37:57.740Z,73.93
2022-12-09T21:40:39.920Z,73.52
2022-12-09T21:43:28.704Z,72.88
2022-12-09T21:46:20.753Z,73.16
2022-12-09T21:49:04.485Z,72.83
2022-12-09T21:51:53.752Z,73.69
2022-12-09T21:54:36.014Z,73.24
2022-12-09T21:57:24.768Z,73.09
2022-12-09T22:00:07.379Z,73.95
2022-12-09T22:02:59.695Z,73.17
2022-12-09T22:05:41.982Z,73.21
2022-12-09T22:08:30.708Z,72.61
2022-12-09T22:11:23.991Z,73.46
2022-12-09T22:14:14.693Z,73.14
2022-12-09T22:16:57.050Z,72.61
2022-12-09T22:19:45.700Z,73.13
2022-12-09T22:22:34.694Z,72.72
2022-12-09T22:25:22.973Z,72.12
2022-12-09T22:28:05.735Z,72.76
2022-12-09T22:30:54.095Z,71.71
2022-12-09T22:33:42.685Z,71.65
2022-12-09T22:36:25.996Z,71.28
2022-12-09T22:39:15.750Z,71.06
2022-12-09T22:41:59.116Z,71.15
2022-12-09T22:44:47.638Z,71.81
2022-12-09T22:47:29.955Z,70.99
2022-12-09T22:50:18.741Z,71.64
2022-12-09T22:53:01.009Z,70.94
2022-12-09T22:55:55.698Z,70.89
2022-12-09T22:58:44.653Z,70.96
2022-12-09T23:01:36.723Z,71.54
2022-12-09T23:04:26.651Z,71.18
2022-12-09T23:07:08.847Z,71.64
2022-12-09T23:09:57.662Z,71.48
2022-12-09T23:12:39.903Z,72.10
2022-12-09T23:15:28.756Z,72.20
2022-12-09T23:18:17.024Z,71.89
2022-12-09T23:20:58.721Z,73.26
2022-12-09T23:23:49.006Z,72.67
2022-12-09T23:26:35.582Z,73.04
2022-12-09T23:29:18.100Z,73.23
2022-12-09T23:32:06.594Z,73.08
2022-12-09T23:34:55.599Z,73.69
2022-12-09T23:37:39.006Z,74.24
2022-12-09T23:40:27.710Z,74.07
2022-12-09T23:43:09.959Z,73.52
2022-12-09T23:45:58.673Z,74.03
2022-12-09T23:48:47.739Z,73.62
2022-12-09T23:51:39.584Z,73.92
2022-12-09T23:54:30.697Z,72.69
2022-12-09T23:57:12.875Z,71.86
